sensor_id;sensor_type;location;lat;lon;timestamp;temperature;humidity
74359;DHT22;62792;46.236;6.040;2023-06-14T00:03:54;25.50;63.40
74359;DHT22;62792;46.236;6.040;2023-06-14T00:08:57;25.50;63.50
74359;DHT22;62792;46.236;6.040;2023-06-14T00:14:00;25.50;63.80
74359;DHT22;62792;46.236;6.040;2023-06-14T00:19:06;25.50;63.80
74359;DHT22;62792;46.236;6.040;2023-06-14T00:24:10;25.40;63.80
74359;DHT22;62792;46.236;6.040;2023-06-14T00:29:13;25.40;63.90
74359;DHT22;62792;46.236;6.040;2023-06-14T00:34:17;25.40;63.90
74359;DHT22;62792;46.236;6.040;2023-06-14T00:39:20;25.40;64.00
74359;DHT22;62792;46.236;6.040;2023-06-14T00:44:23;25.40;64.20
74359;DHT22;62792;46.236;6.040;2023-06-14T00:49:27;25.50;64.00
74359;DHT22;62792;46.236;6.040;2023-06-14T00:54:31;25.40;64.20
74359;DHT22;62792;46.236;6.040;2023-06-14T00:59:34;25.40;63.90
74359;DHT22;62792;46.236;6.040;2023-06-14T01:04:41;25.30;64.30
74359;DHT22;62792;46.236;6.040;2023-06-14T01:09:48;25.30;64.20
74359;DHT22;62792;46.236;6.040;2023-06-14T01:14:59;25.20;64.10
74359;DHT22;62792;46.236;6.040;2023-06-14T01:20:04;25.20;64.20
74359;DHT22;62792;46.236;6.040;2023-06-14T01:25:12;25.20;64.00
74359;DHT22;62792;46.236;6.040;2023-06-14T01:30:15;25.10;64.50
74359;DHT22;62792;46.236;6.040;2023-06-14T01:35:19;25.10;64.60
74359;DHT22;62792;46.236;6.040;2023-06-14T01:40:24;25.10;64.20
74359;DHT22;62792;46.236;6.040;2023-06-14T01:45:27;25.00;64.20
74359;DHT22;62792;46.236;6.040;2023-06-14T01:50:31;25.00;64.40
74359;DHT22;62792;46.236;6.040;2023-06-14T01:55:36;25.00;64.20
74359;DHT22;62792;46.236;6.040;2023-06-14T02:00:39;25.00;64.50
74359;DHT22;62792;46.236;6.040;2023-06-14T02:05:44;24.90;64.60
74359;DHT22;62792;46.236;6.040;2023-06-14T02:10:49;24.90;64.80
74359;DHT22;62792;46.236;6.040;2023-06-14T02:15:52;24.70;64.80
74359;DHT22;62792;46.236;6.040;2023-06-14T02:20:56;24.40;65.50
74359;DHT22;62792;46.236;6.040;2023-06-14T02:26:00;24.60;65.00
74359;DHT22;62792;46.236;6.040;2023-06-14T02:31:04;24.40;65.00
74359;DHT22;62792;46.236;6.040;2023-06-14T02:36:08;24.40;64.70
74359;DHT22;62792;46.236;6.040;2023-06-14T02:41:14;24.30;64.40
74359;DHT22;62792;46.236;6.040;2023-06-14T02:46:16;24.40;64.20
74359;DHT22;62792;46.236;6.040;2023-06-14T02:51:20;24.30;63.80
74359;DHT22;62792;46.236;6.040;2023-06-14T02:56:24;24.40;63.50
74359;DHT22;62792;46.236;6.040;2023-06-14T03:01:27;24.30;63.30
74359;DHT22;62792;46.236;6.040;2023-06-14T03:06:36;24.30;62.40
74359;DHT22;62792;46.236;6.040;2023-06-14T03:11:44;24.20;62.90
74359;DHT22;62792;46.236;6.040;2023-06-14T03:16:47;24.10;63.00
74359;DHT22;62792;46.236;6.040;2023-06-14T03:21:52;24.10;62.00
74359;DHT22;62792;46.236;6.040;2023-06-14T03:26:59;24.00;62.20
74359;DHT22;62792;46.236;6.040;2023-06-14T03:32:03;23.80;62.30
74359;DHT22;62792;46.236;6.040;2023-06-14T03:37:06;23.80;61.80
74359;DHT22;62792;46.236;6.040;2023-06-14T03:42:10;23.90;60.60
74359;DHT22;62792;46.236;6.040;2023-06-14T03:47:13;24.00;60.70
74359;DHT22;62792;46.236;6.040;2023-06-14T03:52:16;23.90;60.30
74359;DHT22;62792;46.236;6.040;2023-06-14T03:57:22;23.90;61.30
74359;DHT22;62792;46.236;6.040;2023-06-14T04:02:26;23.70;61.30
74359;DHT22;62792;46.236;6.040;2023-06-14T04:07:30;23.70;60.30
74359;DHT22;62792;46.236;6.040;2023-06-14T04:12:35;23.60;59.20
74359;DHT22;62792;46.236;6.040;2023-06-14T04:17:37;23.70;58.10
74359;DHT22;62792;46.236;6.040;2023-06-14T04:22:41;23.60;58.50
74359;DHT22;62792;46.236;6.040;2023-06-14T04:27:46;23.70;57.60
74359;DHT22;62792;46.236;6.040;2023-06-14T04:32:49;23.30;58.90
74359;DHT22;62792;46.236;6.040;2023-06-14T04:37:55;23.30;59.20
74359;DHT22;62792;46.236;6.040;2023-06-14T04:43:00;23.10;59.50
74359;DHT22;62792;46.236;6.040;2023-06-14T04:48:06;23.40;59.10
74359;DHT22;62792;46.236;6.040;2023-06-14T04:53:10;23.20;59.90
74359;DHT22;62792;46.236;6.040;2023-06-14T04:58:14;23.20;60.50
74359;DHT22;62792;46.236;6.040;2023-06-14T05:03:17;23.60;60.10
74359;DHT22;62792;46.236;6.040;2023-06-14T05:08:22;23.90;58.70
74359;DHT22;62792;46.236;6.040;2023-06-14T05:13:27;23.80;58.30
74359;DHT22;62792;46.236;6.040;2023-06-14T05:18:31;23.90;57.70
74359;DHT22;62792;46.236;6.040;2023-06-14T05:23:35;23.90;56.90
74359;DHT22;62792;46.236;6.040;2023-06-14T05:28:40;23.90;55.70
74359;DHT22;62792;46.236;6.040;2023-06-14T05:33:42;23.90;55.40
74359;DHT22;62792;46.236;6.040;2023-06-14T05:38:46;24.00;55.00
74359;DHT22;62792;46.236;6.040;2023-06-14T05:43:50;23.90;55.40
74359;DHT22;62792;46.236;6.040;2023-06-14T05:48:54;23.90;56.40
74359;DHT22;62792;46.236;6.040;2023-06-14T05:53:57;23.80;57.40
74359;DHT22;62792;46.236;6.040;2023-06-14T05:59:02;23.80;57.60
74359;DHT22;62792;46.236;6.040;2023-06-14T06:04:04;23.80;57.30
74359;DHT22;62792;46.236;6.040;2023-06-14T06:09:08;23.70;56.20
74359;DHT22;62792;46.236;6.040;2023-06-14T06:14:12;23.70;54.70
74359;DHT22;62792;46.236;6.040;2023-06-14T06:19:15;23.80;53.80
74359;DHT22;62792;46.236;6.040;2023-06-14T06:24:18;23.80;53.30
74359;DHT22;62792;46.236;6.040;2023-06-14T06:29:22;23.70;53.40
74359;DHT22;62792;46.236;6.040;2023-06-14T06:34:25;23.80;53.80
74359;DHT22;62792;46.236;6.040;2023-06-14T06:39:28;23.90;54.50
74359;DHT22;62792;46.236;6.040;2023-06-14T06:44:32;24.00;54.00
74359;DHT22;62792;46.236;6.040;2023-06-14T06:49:36;24.00;53.40
74359;DHT22;62792;46.236;6.040;2023-06-14T06:54:39;24.10;52.40
74359;DHT22;62792;46.236;6.040;2023-06-14T06:59:44;24.20;51.80
74359;DHT22;62792;46.236;6.040;2023-06-14T07:04:47;24.30;51.20
74359;DHT22;62792;46.236;6.040;2023-06-14T07:09:50;24.30;51.00
74359;DHT22;62792;46.236;6.040;2023-06-14T07:14:55;24.30;51.10
74359;DHT22;62792;46.236;6.040;2023-06-14T07:19:58;24.30;51.10
74359;DHT22;62792;46.236;6.040;2023-06-14T07:25:02;24.40;50.60
74359;DHT22;62792;46.236;6.040;2023-06-14T07:30:08;24.40;50.50
74359;DHT22;62792;46.236;6.040;2023-06-14T07:35:11;24.50;49.60
74359;DHT22;62792;46.236;6.040;2023-06-14T07:40:15;24.60;48.80
74359;DHT22;62792;46.236;6.040;2023-06-14T07:45:19;24.40;47.50
74359;DHT22;62792;46.236;6.040;2023-06-14T07:50:23;24.40;46.80
74359;DHT22;62792;46.236;6.040;2023-06-14T07:55:25;24.30;46.60
74359;DHT22;62792;46.236;6.040;2023-06-14T08:00:38;24.10;46.20
74359;DHT22;62792;46.236;6.040;2023-06-14T08:05:41;24.30;46.80
74359;DHT22;62792;46.236;6.040;2023-06-14T08:10:44;24.30;45.80
74359;DHT22;62792;46.236;6.040;2023-06-14T08:15:49;24.50;46.80
74359;DHT22;62792;46.236;6.040;2023-06-14T08:20:52;24.60;46.40
74359;DHT22;62792;46.236;6.040;2023-06-14T08:25:59;24.70;46.70
74359;DHT22;62792;46.236;6.040;2023-06-14T08:31:04;24.80;46.20
74359;DHT22;62792;46.236;6.040;2023-06-14T08:36:07;24.70;45.90
74359;DHT22;62792;46.236;6.040;2023-06-14T08:41:11;24.80;46.10
74359;DHT22;62792;46.236;6.040;2023-06-14T08:46:18;24.90;45.20
74359;DHT22;62792;46.236;6.040;2023-06-14T08:51:23;25.00;46.20
74359;DHT22;62792;46.236;6.040;2023-06-14T08:56:28;25.20;45.60
74359;DHT22;62792;46.236;6.040;2023-06-14T09:01:33;25.30;45.60
74359;DHT22;62792;46.236;6.040;2023-06-14T09:06:36;25.50;45.90
74359;DHT22;62792;46.236;6.040;2023-06-14T09:11:41;25.60;45.80
74359;DHT22;62792;46.236;6.040;2023-06-14T09:16:46;25.70;45.80
74359;DHT22;62792;46.236;6.040;2023-06-14T09:21:49;25.80;45.10
74359;DHT22;62792;46.236;6.040;2023-06-14T09:26:54;25.90;45.10
74359;DHT22;62792;46.236;6.040;2023-06-14T09:31:59;25.90;44.90
74359;DHT22;62792;46.236;6.040;2023-06-14T09:37:02;25.90;44.70
74359;DHT22;62792;46.236;6.040;2023-06-14T09:42:08;26.00;44.30
74359;DHT22;62792;46.236;6.040;2023-06-14T09:47:21;26.00;43.90
74359;DHT22;62792;46.236;6.040;2023-06-14T09:52:24;26.10;43.70
74359;DHT22;62792;46.236;6.040;2023-06-14T09:57:28;26.10;43.10
74359;DHT22;62792;46.236;6.040;2023-06-14T10:02:36;26.10;43.30
74359;DHT22;62792;46.236;6.040;2023-06-14T10:07:41;26.00;41.90
74359;DHT22;62792;46.236;6.040;2023-06-14T10:12:47;26.10;42.10
74359;DHT22;62792;46.236;6.040;2023-06-14T10:17:52;26.30;42.30
74359;DHT22;62792;46.236;6.040;2023-06-14T10:23:00;26.30;41.90
74359;DHT22;62792;46.236;6.040;2023-06-14T10:28:16;26.40;40.80
74359;DHT22;62792;46.236;6.040;2023-06-14T10:33:21;26.40;40.20
74359;DHT22;62792;46.236;6.040;2023-06-14T10:38:29;26.40;39.70
74359;DHT22;62792;46.236;6.040;2023-06-14T10:43:33;26.30;40.60
74359;DHT22;62792;46.236;6.040;2023-06-14T10:48:41;26.40;39.40
74359;DHT22;62792;46.236;6.040;2023-06-14T10:53:44;26.40;39.60
74359;DHT22;62792;46.236;6.040;2023-06-14T10:58:47;26.50;39.40
74359;DHT22;62792;46.236;6.040;2023-06-14T11:03:51;26.50;39.20
74359;DHT22;62792;46.236;6.040;2023-06-14T11:09:01;26.60;39.00
74359;DHT22;62792;46.236;6.040;2023-06-14T11:14:14;26.60;39.00
74359;DHT22;62792;46.236;6.040;2023-06-14T11:19:20;26.60;39.10
74359;DHT22;62792;46.236;6.040;2023-06-14T11:24:24;26.60;39.10
74359;DHT22;62792;46.236;6.040;2023-06-14T11:29:28;26.70;39.00
74359;DHT22;62792;46.236;6.040;2023-06-14T11:34:34;26.70;38.80
74359;DHT22;62792;46.236;6.040;2023-06-14T11:39:37;26.70;38.90
74359;DHT22;62792;46.236;6.040;2023-06-14T11:44:46;26.80;38.80
74359;DHT22;62792;46.236;6.040;2023-06-14T11:49:50;26.90;39.00
74359;DHT22;62792;46.236;6.040;2023-06-14T11:54:53;26.90;39.20
74359;DHT22;62792;46.236;6.040;2023-06-14T11:59:56;26.80;38.90
74359;DHT22;62792;46.236;6.040;2023-06-14T12:05:05;26.90;39.10
74359;DHT22;62792;46.236;6.040;2023-06-14T12:10:11;26.90;39.40
74359;DHT22;62792;46.236;6.040;2023-06-14T12:15:14;26.80;39.40
74359;DHT22;62792;46.236;6.040;2023-06-14T12:20:20;26.90;39.00
74359;DHT22;62792;46.236;6.040;2023-06-14T12:25:29;26.90;38.50
74359;DHT22;62792;46.236;6.040;2023-06-14T12:30:34;26.90;37.80
74359;DHT22;62792;46.236;6.040;2023-06-14T12:35:39;27.00;38.20
74359;DHT22;62792;46.236;6.040;2023-06-14T12:40:42;27.00;37.40
74359;DHT22;62792;46.236;6.040;2023-06-14T12:45:44;27.10;37.40
74359;DHT22;62792;46.236;6.040;2023-06-14T12:50:49;27.00;37.00
74359;DHT22;62792;46.236;6.040;2023-06-14T12:55:52;27.10;36.30
74359;DHT22;62792;46.236;6.040;2023-06-14T13:00:55;27.00;36.30
74359;DHT22;62792;46.236;6.040;2023-06-14T13:05:59;27.10;35.90
74359;DHT22;62792;46.236;6.040;2023-06-14T13:11:02;27.20;35.70
74359;DHT22;62792;46.236;6.040;2023-06-14T13:16:05;27.20;35.80
74359;DHT22;62792;46.236;6.040;2023-06-14T13:21:09;27.20;36.00
74359;DHT22;62792;46.236;6.040;2023-06-14T13:26:14;27.30;35.70
74359;DHT22;62792;46.236;6.040;2023-06-14T13:31:17;27.30;35.80
74359;DHT22;62792;46.236;6.040;2023-06-14T13:36:21;27.30;35.60
74359;DHT22;62792;46.236;6.040;2023-06-14T13:41:25;27.30;35.50
74359;DHT22;62792;46.236;6.040;2023-06-14T13:46:32;27.30;35.20
74359;DHT22;62792;46.236;6.040;2023-06-14T13:51:37;27.30;34.80
74359;DHT22;62792;46.236;6.040;2023-06-14T13:56:40;27.30;34.40
74359;DHT22;62792;46.236;6.040;2023-06-14T14:01:43;27.30;35.00
74359;DHT22;62792;46.236;6.040;2023-06-14T14:06:47;27.40;34.40
74359;DHT22;62792;46.236;6.040;2023-06-14T14:11:50;27.30;34.40
74359;DHT22;62792;46.236;6.040;2023-06-14T14:16:53;27.40;34.30
74359;DHT22;62792;46.236;6.040;2023-06-14T14:21:58;27.40;34.10
74359;DHT22;62792;46.236;6.040;2023-06-14T14:27:03;27.50;34.00
74359;DHT22;62792;46.236;6.040;2023-06-14T14:32:07;27.40;33.50
74359;DHT22;62792;46.236;6.040;2023-06-14T14:37:16;27.50;33.20
74359;DHT22;62792;46.236;6.040;2023-06-14T14:42:19;27.50;32.90
74359;DHT22;62792;46.236;6.040;2023-06-14T14:47:22;27.60;32.90
74359;DHT22;62792;46.236;6.040;2023-06-14T14:52:27;27.40;32.50
74359;DHT22;62792;46.236;6.040;2023-06-14T14:57:30;27.50;32.00
74359;DHT22;62792;46.236;6.040;2023-06-14T15:02:34;27.50;31.90
74359;DHT22;62792;46.236;6.040;2023-06-14T15:07:38;27.40;31.20
74359;DHT22;62792;46.236;6.040;2023-06-14T15:12:42;27.50;31.90
74359;DHT22;62792;46.236;6.040;2023-06-14T15:17:44;27.40;32.20
74359;DHT22;62792;46.236;6.040;2023-06-14T15:22:49;27.40;32.50
74359;DHT22;62792;46.236;6.040;2023-06-14T15:27:52;27.50;32.40
74359;DHT22;62792;46.236;6.040;2023-06-14T15:32:55;27.60;32.60
74359;DHT22;62792;46.236;6.040;2023-06-14T15:37:59;27.60;32.30
74359;DHT22;62792;46.236;6.040;2023-06-14T15:43:03;27.60;32.70
74359;DHT22;62792;46.236;6.040;2023-06-14T15:48:06;27.70;32.70
74359;DHT22;62792;46.236;6.040;2023-06-14T15:53:11;27.70;32.60
74359;DHT22;62792;46.236;6.040;2023-06-14T15:58:14;27.70;32.30
74359;DHT22;62792;46.236;6.040;2023-06-14T16:03:17;27.60;33.00
74359;DHT22;62792;46.236;6.040;2023-06-14T16:08:21;27.70;33.00
74359;DHT22;62792;46.236;6.040;2023-06-14T16:13:41;27.70;33.00
74359;DHT22;62792;46.236;6.040;2023-06-14T16:18:45;27.60;33.30
74359;DHT22;62792;46.236;6.040;2023-06-14T16:23:50;27.50;33.50
74359;DHT22;62792;46.236;6.040;2023-06-14T16:28:53;27.50;33.90
74359;DHT22;62792;46.236;6.040;2023-06-14T16:33:57;27.40;33.80
74359;DHT22;62792;46.236;6.040;2023-06-14T16:39:01;27.40;33.50
74359;DHT22;62792;46.236;6.040;2023-06-14T16:44:04;27.40;33.50
74359;DHT22;62792;46.236;6.040;2023-06-14T16:49:07;27.50;33.90
74359;DHT22;62792;46.236;6.040;2023-06-14T16:54:12;27.40;33.60
74359;DHT22;62792;46.236;6.040;2023-06-14T16:59:14;27.40;33.50
74359;DHT22;62792;46.236;6.040;2023-06-14T17:04:18;27.50;33.30
74359;DHT22;62792;46.236;6.040;2023-06-14T17:09:23;27.50;33.20
74359;DHT22;62792;46.236;6.040;2023-06-14T17:14:26;27.50;33.20
74359;DHT22;62792;46.236;6.040;2023-06-14T17:19:29;27.40;33.80
74359;DHT22;62792;46.236;6.040;2023-06-14T17:24:33;27.50;33.50
74359;DHT22;62792;46.236;6.040;2023-06-14T17:29:36;27.50;33.90
74359;DHT22;62792;46.236;6.040;2023-06-14T17:34:39;27.50;33.80
74359;DHT22;62792;46.236;6.040;2023-06-14T17:39:43;27.50;34.50
74359;DHT22;62792;46.236;6.040;2023-06-14T17:44:46;27.50;34.80
74359;DHT22;62792;46.236;6.040;2023-06-14T17:49:52;27.40;34.60
74359;DHT22;62792;46.236;6.040;2023-06-14T17:54:56;27.40;34.50
74359;DHT22;62792;46.236;6.040;2023-06-14T17:59:59;27.50;34.50
74359;DHT22;62792;46.236;6.040;2023-06-14T18:05:02;27.50;34.50
74359;DHT22;62792;46.236;6.040;2023-06-14T18:10:07;27.50;34.50
74359;DHT22;62792;46.236;6.040;2023-06-14T18:15:10;27.60;34.30
74359;DHT22;62792;46.236;6.040;2023-06-14T18:20:13;27.60;34.60
74359;DHT22;62792;46.236;6.040;2023-06-14T18:25:18;27.60;34.80
74359;DHT22;62792;46.236;6.040;2023-06-14T18:30:21;27.60;34.50
74359;DHT22;62792;46.236;6.040;2023-06-14T18:35:24;27.70;34.50
74359;DHT22;62792;46.236;6.040;2023-06-14T18:40:28;27.70;34.50
74359;DHT22;62792;46.236;6.040;2023-06-14T18:45:31;27.70;34.70
74359;DHT22;62792;46.236;6.040;2023-06-14T18:50:34;27.70;35.20
74359;DHT22;62792;46.236;6.040;2023-06-14T18:55:39;27.60;35.60
74359;DHT22;62792;46.236;6.040;2023-06-14T19:00:45;27.50;35.60
74359;DHT22;62792;46.236;6.040;2023-06-14T19:05:48;27.50;35.60
74359;DHT22;62792;46.236;6.040;2023-06-14T19:10:54;27.30;35.50
74359;DHT22;62792;46.236;6.040;2023-06-14T19:15:57;27.20;35.60
74359;DHT22;62792;46.236;6.040;2023-06-14T19:21:00;27.10;35.60
74359;DHT22;62792;46.236;6.040;2023-06-14T19:26:04;27.10;35.90
74359;DHT22;62792;46.236;6.040;2023-06-14T19:31:08;27.00;35.90
74359;DHT22;62792;46.236;6.040;2023-06-14T19:36:12;27.10;36.00
74359;DHT22;62792;46.236;6.040;2023-06-14T19:41:19;27.10;36.10
74359;DHT22;62792;46.236;6.040;2023-06-14T19:46:22;27.00;36.30
74359;DHT22;62792;46.236;6.040;2023-06-14T19:51:27;27.00;36.60
74359;DHT22;62792;46.236;6.040;2023-06-14T19:56:32;27.00;36.30
74359;DHT22;62792;46.236;6.040;2023-06-14T20:01:35;26.80;36.50
74359;DHT22;62792;46.236;6.040;2023-06-14T20:06:38;26.90;36.60
74359;DHT22;62792;46.236;6.040;2023-06-14T20:11:43;26.90;36.50
74359;DHT22;62792;46.236;6.040;2023-06-14T20:16:46;26.80;36.60
74359;DHT22;62792;46.236;6.040;2023-06-14T20:21:49;26.70;36.70
74359;DHT22;62792;46.236;6.040;2023-06-14T20:26:53;26.80;36.50
74359;DHT22;62792;46.236;6.040;2023-06-14T20:31:56;26.80;36.50
74359;DHT22;62792;46.236;6.040;2023-06-14T20:36:59;26.80;36.50
74359;DHT22;62792;46.236;6.040;2023-06-14T20:42:03;26.90;36.60
74359;DHT22;62792;46.236;6.040;2023-06-14T20:47:26;26.90;36.70
74359;DHT22;62792;46.236;6.040;2023-06-14T20:52:29;26.90;36.70
74359;DHT22;62792;46.236;6.040;2023-06-14T20:57:33;26.90;36.80
74359;DHT22;62792;46.236;6.040;2023-06-14T21:02:37;26.80;37.00
74359;DHT22;62792;46.236;6.040;2023-06-14T21:07:41;26.90;36.90
74359;DHT22;62792;46.236;6.040;2023-06-14T21:12:45;26.90;37.10
74359;DHT22;62792;46.236;6.040;2023-06-14T21:17:48;26.90;37.10
74359;DHT22;62792;46.236;6.040;2023-06-14T21:22:51;26.80;37.40
74359;DHT22;62792;46.236;6.040;2023-06-14T21:27:57;26.80;37.30
74359;DHT22;62792;46.236;6.040;2023-06-14T21:33:00;26.80;37.70
74359;DHT22;62792;46.236;6.040;2023-06-14T21:38:04;26.80;38.00
74359;DHT22;62792;46.236;6.040;2023-06-14T21:43:08;26.90;38.10
74359;DHT22;62792;46.236;6.040;2023-06-14T21:48:11;26.80;38.20
74359;DHT22;62792;46.236;6.040;2023-06-14T21:53:14;26.80;38.50
74359;DHT22;62792;46.236;6.040;2023-06-14T21:58:19;26.70;38.40
74359;DHT22;62792;46.236;6.040;2023-06-14T22:03:21;26.80;38.90
74359;DHT22;62792;46.236;6.040;2023-06-14T22:08:25;26.60;38.80
74359;DHT22;62792;46.236;6.040;2023-06-14T22:13:30;26.20;40.30
74359;DHT22;62792;46.236;6.040;2023-06-14T22:18:34;25.50;41.60
74359;DHT22;62792;46.236;6.040;2023-06-14T22:23:37;25.00;43.00
74359;DHT22;62792;46.236;6.040;2023-06-14T22:28:42;24.80;43.60
74359;DHT22;62792;46.236;6.040;2023-06-14T22:33:46;24.70;43.50
74359;DHT22;62792;46.236;6.040;2023-06-14T22:38:52;24.60;43.60
74359;DHT22;62792;46.236;6.040;2023-06-14T22:43:56;24.60;43.40
74359;DHT22;62792;46.236;6.040;2023-06-14T22:49:00;24.70;43.20
74359;DHT22;62792;46.236;6.040;2023-06-14T22:54:03;24.80;42.60
74359;DHT22;62792;46.236;6.040;2023-06-14T22:59:08;24.80;42.50
74359;DHT22;62792;46.236;6.040;2023-06-14T23:04:11;24.90;42.40
74359;DHT22;62792;46.236;6.040;2023-06-14T23:09:15;24.90;42.10
74359;DHT22;62792;46.236;6.040;2023-06-14T23:14:19;24.90;42.50
74359;DHT22;62792;46.236;6.040;2023-06-14T23:19:22;24.80;42.30
74359;DHT22;62792;46.236;6.040;2023-06-14T23:24:26;24.80;42.40
74359;DHT22;62792;46.236;6.040;2023-06-14T23:29:32;24.80;42.70
74359;DHT22;62792;46.236;6.040;2023-06-14T23:34:35;24.70;42.70
74359;DHT22;62792;46.236;6.040;2023-06-14T23:39:38;24.60;43.00
74359;DHT22;62792;46.236;6.040;2023-06-14T23:44:51;24.60;43.00
74359;DHT22;62792;46.236;6.040;2023-06-14T23:49:54;24.50;43.60
74359;DHT22;62792;46.236;6.040;2023-06-14T23:54:56;24.50;44.50
